Time;durP1;ratioP1;P1;durP2;ratioP2;P2;SDS_P1;SDS_P2;PMS_P1;PMS_P2;Temp;Humidity;BMP_temperature;BMP_pressure;BME280_temperature;BME280_humidity;BME280_pressure;Samples;Min_cycle;Max_cycle;Signal;HPM_P1;HPM_P2
2021/09/09 00:01:29;;;;;;;8.73;6.30;;;21.20;72.40;;;;;;5096734;28;20577;-71
2021/09/09 00:03:55;;;;;;;7.10;6.07;;;21.10;72.50;;;;;;5096925;28;20125;-71
2021/09/09 00:06:21;;;;;;;7.30;6.25;;;21.20;72.50;;;;;;5097043;28;20101;-71
2021/09/09 00:08:47;;;;;;;7.75;6.13;;;21.10;72.50;;;;;;5097660;28;20039;-71
2021/09/09 00:11:13;;;;;;;6.55;5.80;;;21.10;72.60;;;;;;5097296;28;20050;-71
2021/09/09 00:13:39;;;;;;;8.77;6.85;;;21.10;72.60;;;;;;5096493;28;20059;-71
2021/09/09 00:16:05;;;;;;;8.05;6.85;;;21.10;72.70;;;;;;5097317;28;20048;-71
2021/09/09 00:18:31;;;;;;;7.53;5.70;;;21.10;72.20;;;;;;5097171;28;20055;-71
2021/09/09 00:20:58;;;;;;;7.60;6.68;;;21.10;72.30;;;;;;5096799;28;20036;-70
2021/09/09 00:23:24;;;;;;;7.50;6.28;;;21.10;72.40;;;;;;5096424;28;20039;-71
2021/09/09 00:25:49;;;;;;;7.38;6.63;;;21.10;72.50;;;;;;5096419;28;20047;-71
2021/09/09 00:28:15;;;;;;;7.28;6.57;;;21.10;72.30;;;;;;5096947;28;20079;-71
2021/09/09 00:30:41;;;;;;;7.63;5.88;;;21.10;72.50;;;;;;5078560;28;20075;-71
2021/09/09 00:33:08;;;;;;;7.38;6.43;;;21.00;72.30;;;;;;5096068;28;20495;-71
2021/09/09 00:35:35;;;;;;;7.72;6.85;;;21.00;72.30;;;;;;5096681;28;20044;-71
2021/09/09 00:38:01;;;;;;;6.63;6.03;;;21.00;72.20;;;;;;5096817;28;20040;-71
2021/09/09 00:40:28;;;;;;;8.23;6.68;;;21.00;72.10;;;;;;5097018;28;20040;-71
2021/09/09 00:42:54;;;;;;;7.57;6.28;;;21.00;71.90;;;;;;5095960;28;20481;-71
2021/09/09 00:45:19;;;;;;;7.80;6.85;;;21.00;72.10;;;;;;5096582;28;20047;-71
2021/09/09 00:47:45;;;;;;;8.68;6.65;;;21.00;72.20;;;;;;5096950;28;20056;-71
2021/09/09 00:50:12;;;;;;;7.57;6.68;;;21.00;72.00;;;;;;5078201;28;20363;-71
2021/09/09 00:52:49;;;;;;;7.32;6.50;;;20.90;71.60;;;;;;5096005;28;20366;-71
2021/09/09 00:55:15;;;;;;;6.60;5.90;;;20.90;72.20;;;;;;5096224;28;20192;-71
2021/09/09 00:57:41;;;;;;;8.43;6.82;;;20.90;71.40;;;;;;5096381;28;20431;-71
2021/09/09 01:00:08;;;;;;;8.98;7.00;;;20.90;71.30;;;;;;5096467;28;20126;-71
2021/09/09 01:02:33;;;;;;;8.98;7.10;;;20.90;71.30;;;;;;5095338;28;20051;-71
2021/09/09 01:04:59;;;;;;;7.13;6.15;;;20.90;71.60;;;;;;5096148;28;20114;-70
2021/09/09 01:07:25;;;;;;;7.25;6.35;;;20.80;71.40;;;;;;5096105;28;20047;-70
2021/09/09 01:09:52;;;;;;;8.85;6.57;;;20.90;71.70;;;;;;5095996;28;20448;-71
2021/09/09 01:12:19;;;;;;;6.50;5.80;;;20.90;71.50;;;;;;5095492;28;20032;-71
2021/09/09 01:14:44;;;;;;;8.15;6.63;;;20.90;71.90;;;;;;5096319;28;20036;-71
2021/09/09 01:17:10;;;;;;;6.75;6.05;;;20.80;71.70;;;;;;5096087;28;20351;-71
2021/09/09 01:19:36;;;;;;;6.80;6.07;;;20.80;71.50;;;;;;5095739;28;20070;-71
2021/09/09 01:22:04;;;;;;;7.05;6.20;;;20.80;71.60;;;;;;5095867;28;20047;-70
2021/09/09 01:24:30;;;;;;;8.45;7.18;;;20.80;71.30;;;;;;5095961;28;20126;-70
2021/09/09 01:26:58;;;;;;;7.78;6.75;;;20.80;70.90;;;;;;5095454;28;20127;-71
2021/09/09 01:29:27;;;;;;;8.80;7.55;;;20.80;71.30;;;;;;5096230;28;20059;-70
2021/09/09 01:31:53;;;;;;;7.93;6.22;;;20.80;71.10;;;;;;5095544;28;20129;-70
2021/09/09 01:34:19;;;;;;;7.13;6.15;;;20.80;71.30;;;;;;5096125;28;20122;-71
2021/09/09 01:36:46;;;;;;;7.78;6.30;;;20.80;71.60;;;;;;5095734;28;20050;-70
2021/09/09 01:39:11;;;;;;;7.20;6.25;;;20.80;71.40;;;;;;5094978;28;20039;-71
2021/09/09 01:41:37;;;;;;;7.45;5.85;;;20.80;71.30;;;;;;5095632;28;20040;-71
2021/09/09 01:44:04;;;;;;;7.95;6.80;;;20.80;71.60;;;;;;5094906;28;20047;-71
2021/09/09 01:46:30;;;;;;;7.82;6.28;;;20.80;71.10;;;;;;5095182;28;20047;-71
2021/09/09 01:48:56;;;;;;;8.15;6.57;;;20.70;71.30;;;;;;5095497;28;20044;-71
2021/09/09 01:51:22;;;;;;;8.35;6.07;;;20.70;71.30;;;;;;5095385;28;20429;-71
2021/09/09 01:53:47;;;;;;;7.22;6.53;;;20.80;71.40;;;;;;5094599;28;20047;-70
2021/09/09 01:56:13;;;;;;;8.13;6.20;;;20.80;71.10;;;;;;5095257;28;20040;-71
2021/09/09 01:58:40;;;;;;;7.28;6.47;;;20.80;71.30;;;;;;5095396;28;20119;-71
2021/09/09 02:01:06;;;;;;;9.05;6.20;;;20.80;71.50;;;;;;5094794;28;20419;-71
2021/09/09 02:03:31;;;;;;;6.68;5.97;;;20.80;71.50;;;;;;5094585;28;20481;-70
2021/09/09 02:05:57;;;;;;;7.32;5.55;;;20.80;71.60;;;;;;5095483;28;20039;-71
2021/09/09 02:08:23;;;;;;;7.10;6.25;;;20.80;71.70;;;;;;5095080;28;20455;-71
2021/09/09 02:10:48;;;;;;;8.45;6.25;;;20.70;71.50;;;;;;5094513;28;20044;-70
2021/09/09 02:13:15;;;;;;;8.70;6.40;;;20.70;71.50;;;;;;5094870;28;20071;-71
2021/09/09 02:15:42;;;;;;;8.93;6.90;;;20.70;71.80;;;;;;5095401;28;20134;-71
2021/09/09 02:18:07;;;;;;;7.72;5.95;;;20.70;71.40;;;;;;5095146;28;20085;-71
2021/09/09 02:20:33;;;;;;;6.45;5.80;;;20.70;71.50;;;;;;5095139;28;20044;-71
2021/09/09 02:22:59;;;;;;;7.15;6.15;;;20.70;71.60;;;;;;5094420;28;20044;-71
2021/09/09 02:25:25;;;;;;;7.25;6.43;;;20.70;71.20;;;;;;5095278;28;20088;-71
2021/09/09 02:27:50;;;;;;;7.28;6.45;;;20.70;71.20;;;;;;5094877;28;20044;-71
2021/09/09 02:30:16;;;;;;;7.57;6.80;;;20.70;71.00;;;;;;5094896;28;20055;-71
2021/09/09 02:32:42;;;;;;;7.38;6.63;;;20.70;71.00;;;;;;5094389;28;20036;-70
2021/09/09 02:35:08;;;;;;;7.80;6.78;;;20.70;70.70;;;;;;5094990;28;20047;-71
2021/09/09 02:37:34;;;;;;;7.13;5.80;;;20.70;71.00;;;;;;5094852;28;20113;-71
2021/09/09 02:40:00;;;;;;;9.05;6.35;;;20.70;71.30;;;;;;5094351;28;20028;-71
2021/09/09 02:42:25;;;;;;;7.43;5.95;;;20.70;71.20;;;;;;5094272;28;20036;-71
2021/09/09 02:44:51;;;;;;;9.07;6.50;;;20.60;71.50;;;;;;5094506;28;20044;-70
2021/09/09 02:47:17;;;;;;;8.15;6.07;;;20.70;71.70;;;;;;5094978;28;20172;-70
2021/09/09 02:49:42;;;;;;;6.97;6.10;;;20.70;71.60;;;;;;5096232;28;20036;-71
2021/09/09 02:52:08;;;;;;;7.63;5.85;;;20.70;71.50;;;;;;5098634;28;20122;-71
2021/09/09 02:54:34;;;;;;;9.23;6.05;;;20.60;71.60;;;;;;5098274;28;20142;-71
2021/09/09 02:56:59;;;;;;;10.40;6.50;;;20.70;71.60;;;;;;5098465;28;20342;-70
2021/09/09 02:59:25;;;;;;;7.70;6.78;;;20.60;71.20;;;;;;5099045;28;20109;-71
2021/09/09 03:01:51;;;;;;;7.95;6.97;;;20.60;71.10;;;;;;5098554;28;20075;-70
2021/09/09 03:04:16;;;;;;;7.07;6.18;;;20.60;70.70;;;;;;5098053;28;20054;-71
2021/09/09 03:06:42;;;;;;;6.65;6.03;;;20.60;71.10;;;;;;5098645;28;20071;-71
2021/09/09 03:09:08;;;;;;;7.55;6.10;;;20.60;71.30;;;;;;5097771;28;20355;-71
2021/09/09 03:11:33;;;;;;;6.90;6.20;;;20.60;71.40;;;;;;5098416;28;20036;-71
2021/09/09 03:13:59;;;;;;;7.22;6.20;;;20.60;71.20;;;;;;5098299;28;20351;-71
2021/09/09 03:16:25;;;;;;;8.43;6.50;;;20.60;71.30;;;;;;5098344;28;20066;-70
2021/09/09 03:18:51;;;;;;;7.68;6.60;;;20.60;71.40;;;;;;5098225;28;20427;-71
2021/09/09 03:21:16;;;;;;;8.02;7.22;;;20.50;71.00;;;;;;5098364;28;20343;-71
2021/09/09 03:23:42;;;;;;;9.27;7.72;;;20.50;70.90;;;;;;5098298;28;20451;-71
2021/09/09 03:26:08;;;;;;;10.82;7.45;;;20.50;70.90;;;;;;5097550;28;20040;-70
2021/09/09 03:28:34;;;;;;;7.65;6.43;;;20.50;70.50;;;;;;5097650;28;20047;-70
2021/09/09 03:31:00;;;;;;;8.63;6.32;;;20.50;70.80;;;;;;5098172;28;20048;-71
2021/09/09 03:33:25;;;;;;;7.45;6.50;;;20.50;71.00;;;;;;5098122;28;20344;-70
2021/09/09 03:35:51;;;;;;;9.65;7.13;;;20.50;70.80;;;;;;5097868;28;20051;-71
2021/09/09 03:38:17;;;;;;;7.63;6.13;;;20.50;70.80;;;;;;5080156;28;20460;-71
2021/09/09 03:40:42;;;;;;;9.15;6.80;;;20.50;71.00;;;;;;5098065;28;20043;-71
2021/09/09 03:43:08;;;;;;;8.35;6.78;;;20.50;71.10;;;;;;5097481;28;20536;-70
2021/09/09 03:45:34;;;;;;;7.82;6.38;;;20.50;70.90;;;;;;5097633;28;20103;-71
2021/09/09 03:47:59;;;;;;;9.18;6.85;;;20.40;70.80;;;;;;5097537;28;20458;-71
2021/09/09 03:50:25;;;;;;;10.00;6.53;;;20.50;70.80;;;;;;5097456;28;20097;-71
2021/09/09 03:52:51;;;;;;;8.73;6.40;;;20.40;70.50;;;;;;5097481;28;20084;-71
2021/09/09 03:55:17;;;;;;;8.32;6.78;;;20.40;70.70;;;;;;5079714;28;20051;-71
2021/09/09 03:57:42;;;;;;;11.30;7.03;;;20.40;70.80;;;;;;5097088;28;20036;-71
2021/09/09 04:00:09;;;;;;;8.50;6.60;;;20.40;70.80;;;;;;5097898;28;20036;-71
2021/09/09 04:02:35;;;;;;;7.03;6.13;;;20.40;70.80;;;;;;5095961;28;20131;-71
2021/09/09 04:05:02;;;;;;;8.90;6.32;;;20.40;70.90;;;;;;5096840;28;20079;-71
2021/09/09 04:07:27;;;;;;;8.30;6.85;;;20.40;70.80;;;;;;5097474;28;20431;-71
2021/09/09 04:09:53;;;;;;;8.52;7.45;;;20.40;70.60;;;;;;5097297;28;20087;-70
2021/09/09 04:12:19;;;;;;;7.82;6.65;;;20.40;70.20;;;;;;5096964;28;20044;-71
2021/09/09 04:14:45;;;;;;;7.60;6.60;;;20.40;70.50;;;;;;5096923;28;20055;-70
2021/09/09 04:17:10;;;;;;;8.00;6.68;;;20.40;70.60;;;;;;5096742;28;20040;-71
2021/09/09 04:19:36;;;;;;;8.07;7.03;;;20.40;70.80;;;;;;5096994;28;20040;-70
2021/09/09 04:22:06;;;;;;;8.95;7.05;;;20.30;70.50;;;;;;5096523;28;20046;-71
2021/09/09 04:24:33;;;;;;;7.63;6.03;;;20.30;70.50;;;;;;5097286;28;20082;-71
2021/09/09 04:26:59;;;;;;;9.23;7.85;;;20.30;70.40;;;;;;5096524;28;20431;-71
2021/09/09 04:29:26;;;;;;;8.32;6.38;;;20.30;70.30;;;;;;5096743;28;20051;-71
2021/09/09 04:31:52;;;;;;;8.63;7.13;;;20.30;70.40;;;;;;5096383;28;20181;-70
2021/09/09 04:34:17;;;;;;;7.22;6.38;;;20.30;70.40;;;;;;5096602;28;20077;-70
2021/09/09 04:36:43;;;;;;;9.00;6.55;;;20.30;70.50;;;;;;5096885;28;20419;-70
2021/09/09 04:39:09;;;;;;;8.43;7.53;;;20.30;70.50;;;;;;5096859;28;20036;-70
2021/09/09 04:41:35;;;;;;;7.13;6.43;;;20.30;70.90;;;;;;5096797;28;20040;-70
2021/09/09 04:44:00;;;;;;;9.30;7.05;;;20.30;70.10;;;;;;5095867;28;20048;-71
2021/09/09 04:46:26;;;;;;;7.93;6.45;;;20.30;70.00;;;;;;5096495;28;20431;-70
2021/09/09 04:48:52;;;;;;;9.90;7.47;;;20.30;70.30;;;;;;5097307;28;20079;-72
2021/09/09 04:51:18;;;;;;;9.95;6.85;;;20.30;70.10;;;;;;5095311;28;20059;-74
2021/09/09 04:53:43;;;;;;;10.27;6.82;;;20.30;70.10;;;;;;5095479;28;20095;-71
2021/09/09 04:56:09;;;;;;;9.07;7.50;;;20.30;70.20;;;;;;5076577;28;20040;-71
2021/09/09 04:58:35;;;;;;;9.32;7.55;;;20.20;69.80;;;;;;5095522;28;20346;-71
2021/09/09 05:01:00;;;;;;;12.57;8.60;;;20.10;69.60;;;;;;5095875;28;20081;-72
2021/09/09 05:03:26;;;;;;;11.98;7.90;;;20.20;69.70;;;;;;5095678;28;20043;-72
2021/09/09 05:05:52;;;;;;;10.27;9.10;;;20.10;69.90;;;;;;5096057;28;20119;-71
2021/09/09 05:08:17;;;;;;;13.65;10.95;;;20.20;70.40;;;;;;5096328;28;20123;-71
2021/09/09 05:10:43;;;;;;;15.73;11.07;;;20.30;68.60;;;;;;5095678;28;20039;-71
2021/09/09 05:13:09;;;;;;;15.10;11.90;;;20.20;67.80;;;;;;5095008;28;20046;-71
2021/09/09 05:15:34;;;;;;;14.82;11.63;;;20.10;67.60;;;;;;5096103;28;20036;-70
2021/09/09 05:18:00;;;;;;;15.23;11.45;;;20.00;67.50;;;;;;5096088;28;20161;-70
2021/09/09 05:20:26;;;;;;;13.98;11.90;;;20.00;67.50;;;;;;5095781;28;20036;-72
2021/09/09 05:22:51;;;;;;;14.18;11.50;;;19.90;67.30;;;;;;5096282;28;20067;-71
2021/09/09 05:25:17;;;;;;;14.80;12.15;;;19.90;67.50;;;;;;5096011;28;20066;-71
2021/09/09 05:27:43;;;;;;;13.02;11.52;;;19.80;67.50;;;;;;5094546;28;20100;-73
2021/09/09 05:30:11;;;;;;;13.88;11.98;;;19.80;67.50;;;;;;5095099;28;20039;-72
2021/09/09 05:32:37;;;;;;;13.30;11.45;;;19.70;67.60;;;;;;5077161;28;20036;-73
2021/09/09 05:35:03;;;;;;;14.32;11.20;;;19.70;67.80;;;;;;5095087;28;20036;-71
2021/09/09 05:37:29;;;;;;;15.63;12.25;;;19.60;67.90;;;;;;5077067;28;20118;-72
2021/09/09 05:39:55;;;;;;;18.42;12.13;;;19.60;68.10;;;;;;5094870;28;20130;-71
2021/09/09 05:42:21;;;;;;;15.98;12.50;;;19.60;68.00;;;;;;5095355;28;20036;-71
2021/09/09 05:44:47;;;;;;;13.60;11.93;;;19.60;68.10;;;;;;5095457;28;20059;-71
2021/09/09 05:47:13;;;;;;;13.93;11.02;;;19.50;68.30;;;;;;5095190;28;20051;-72
2021/09/09 05:49:39;;;;;;;14.38;12.13;;;19.50;68.40;;;;;;5094878;28;20342;-71
2021/09/09 05:52:05;;;;;;;16.98;12.50;;;19.50;68.30;;;;;;5095791;28;20051;-72
2021/09/09 05:54:32;;;;;;;14.88;12.57;;;19.50;68.60;;;;;;5095276;28;20043;-75
2021/09/09 05:56:58;;;;;;;18.42;13.27;;;19.40;68.60;;;;;;5095244;28;20040;-71
2021/09/09 05:59:24;;;;;;;14.02;11.48;;;19.40;69.10;;;;;;5095050;28;20119;-71
2021/09/09 06:01:50;;;;;;;17.45;12.77;;;19.30;69.30;;;;;;5095126;28;20127;-71
2021/09/09 06:04:20;;;;;;;14.80;12.82;;;19.40;69.20;;;;;;5094722;28;20040;-71
2021/09/09 06:06:46;;;;;;;15.45;12.50;;;19.40;69.20;;;;;;5094781;28;20048;-71
2021/09/09 06:09:11;;;;;;;17.77;12.65;;;19.30;69.30;;;;;;5095381;28;20051;-71
2021/09/09 06:11:38;;;;;;;20.48;12.07;;;19.30;69.50;;;;;;5094832;28;20362;-70
2021/09/09 06:14:04;;;;;;;14.40;10.95;;;19.30;70.20;;;;;;5095587;28;20048;-71
2021/09/09 06:16:30;;;;;;;12.43;10.73;;;19.30;70.50;;;;;;5095282;28;20047;-70
2021/09/09 06:18:56;;;;;;;13.95;10.00;;;19.40;70.60;;;;;;5095004;28;20036;-70
2021/09/09 06:21:22;;;;;;;15.80;10.80;;;19.40;70.60;;;;;;5095497;28;20371;-72
2021/09/09 06:23:48;;;;;;;15.35;9.63;;;19.50;70.40;;;;;;5094658;28;20115;-71
2021/09/09 06:26:13;;;;;;;31.02;11.65;;;19.50;70.40;;;;;;5099403;28;20048;-71
2021/09/09 06:28:39;;;;;;;20.10;10.05;;;19.60;70.60;;;;;;5081515;28;20083;-70
2021/09/09 06:31:05;;;;;;;13.60;9.65;;;19.60;70.30;;;;;;5099439;28;20047;-74
2021/09/09 06:33:31;;;;;;;13.55;10.02;;;19.70;70.60;;;;;;5098823;28;20051;-71
2021/09/09 06:35:57;;;;;;;13.18;9.00;;;19.70;70.70;;;;;;5098856;28;20032;-70
2021/09/09 06:38:22;;;;;;;14.90;8.50;;;19.80;70.90;;;;;;5099048;28;20435;-71
2021/09/09 06:40:48;;;;;;;17.98;9.45;;;19.80;71.20;;;;;;5098310;28;20040;-72
2021/09/09 06:43:14;;;;;;;16.40;9.75;;;19.80;71.40;;;;;;5098684;28;20059;-71
2021/09/09 06:45:39;;;;;;;17.65;9.60;;;19.90;71.30;;;;;;5098569;28;20043;-71
2021/09/09 06:48:05;;;;;;;18.73;9.63;;;19.90;70.90;;;;;;5098502;28;20115;-74
2021/09/09 06:50:32;;;;;;;20.35;10.50;;;20.00;71.00;;;;;;5080616;28;20048;-72
2021/09/09 06:52:57;;;;;;;23.48;10.70;;;20.00;71.80;;;;;;5098528;28;20170;-75
2021/09/09 06:55:23;;;;;;;18.02;13.07;;;20.10;71.00;;;;;;5098261;28;20089;-76
2021/09/09 06:57:49;;;;;;;23.50;13.35;;;20.10;70.00;;;;;;5098871;28;20032;-76
2021/09/09 07:00:15;;;;;;;17.85;13.35;;;20.00;70.10;;;;;;5079849;28;20044;-73
2021/09/09 07:02:41;;;;;;;17.17;13.35;;;20.00;69.60;;;;;;5099313;28;20051;-74
2021/09/09 07:05:07;;;;;;;16.30;12.73;;;19.90;69.70;;;;;;5099170;28;20090;-74
2021/09/09 07:07:33;;;;;;;16.85;12.07;;;20.00;69.90;;;;;;5098136;28;20117;-76
2021/09/09 07:09:58;;;;;;;25.67;12.70;;;20.00;70.00;;;;;;5098036;28;20444;-76
2021/09/09 07:12:24;;;;;;;17.55;13.98;;;20.00;70.10;;;;;;5098364;28;20109;-77
2021/09/09 07:14:49;;;;;;;19.90;15.00;;;20.00;70.20;;;;;;5098077;28;20047;-76
2021/09/09 07:17:15;;;;;;;21.17;14.93;;;20.00;70.10;;;;;;5098296;28;20347;-76
2021/09/09 07:19:41;;;;;;;22.13;14.18;;;19.90;70.20;;;;;;5098129;28;20117;-72
2021/09/09 07:22:06;;;;;;;18.20;13.63;;;19.90;71.00;;;;;;5098026;28;20040;-71
2021/09/09 07:24:32;;;;;;;18.35;13.82;;;20.00;70.60;;;;;;5098045;28;20044;-72
2021/09/09 07:26:58;;;;;;;18.52;13.88;;;20.00;70.70;;;;;;5097986;28;20104;-71
2021/09/09 07:29:24;;;;;;;18.08;13.75;;;19.90;70.60;;;;;;5097836;28;20443;-71
2021/09/09 07:31:49;;;;;;;17.67;13.98;;;20.00;70.70;;;;;;5097327;28;20036;-71
2021/09/09 07:34:16;;;;;;;18.13;13.88;;;20.00;70.60;;;;;;5097623;28;20113;-71
2021/09/09 07:36:42;;;;;;;16.98;13.57;;;20.10;70.70;;;;;;5096430;28;20048;-71
2021/09/09 07:39:08;;;;;;;17.00;13.45;;;20.10;70.70;;;;;;5080514;28;20340;-72
2021/09/09 07:41:34;;;;;;;15.63;13.82;;;20.10;70.60;;;;;;5097424;28;20055;-71
2021/09/09 07:44:00;;;;;;;16.65;13.52;;;20.10;70.60;;;;;;5097763;28;20048;-71
2021/09/09 07:46:26;;;;;;;16.67;14.35;;;20.20;70.70;;;;;;5097108;28;20086;-72
2021/09/09 07:48:53;;;;;;;16.08;13.60;;;20.20;70.60;;;;;;5097929;28;20109;-71
2021/09/09 07:51:19;;;;;;;20.30;14.13;;;20.20;70.60;;;;;;5097062;28;20128;-72
2021/09/09 07:53:45;;;;;;;18.40;13.30;;;20.30;70.70;;;;;;5098060;28;20075;-71
2021/09/09 07:56:12;;;;;;;16.30;13.65;;;20.30;70.70;;;;;;5079094;28;20127;-71
2021/09/09 07:58:37;;;;;;;17.05;13.40;;;20.30;70.70;;;;;;5097306;28;20095;-72
2021/09/09 08:01:03;;;;;;;17.05;13.57;;;20.30;70.70;;;;;;5097189;28;20083;-72
2021/09/09 08:03:29;;;;;;;15.95;13.85;;;20.40;70.80;;;;;;5096866;28;20413;-72
2021/09/09 08:05:55;;;;;;;17.15;14.00;;;20.30;70.80;;;;;;5097262;28;20364;-71
2021/09/09 08:08:21;;;;;;;15.77;13.63;;;20.40;70.80;;;;;;5079652;28;20095;-72
2021/09/09 08:10:47;;;;;;;14.65;13.13;;;20.40;70.90;;;;;;5097101;28;20040;-72
2021/09/09 08:13:12;;;;;;;17.45;13.52;;;20.40;70.90;;;;;;5097417;28;20411;-71
2021/09/09 08:15:38;;;;;;;17.45;13.90;;;20.40;70.90;;;;;;5079341;28;20439;-72
2021/09/09 08:18:04;;;;;;;15.25;13.25;;;20.50;71.00;;;;;;5079275;28;20091;-71
2021/09/09 08:20:30;;;;;;;16.35;13.55;;;20.50;71.00;;;;;;5079345;28;20083;-72
2021/09/09 08:22:56;;;;;;;14.82;13.10;;;20.50;71.10;;;;;;5096596;28;20490;-72
2021/09/09 08:25:22;;;;;;;16.08;13.23;;;20.50;71.10;;;;;;5096805;28;20075;-72
2021/09/09 08:27:48;;;;;;;14.32;12.82;;;20.60;71.10;;;;;;5096379;28;20051;-72
2021/09/09 08:30:14;;;;;;;16.73;13.50;;;20.60;71.20;;;;;;5096368;28;20048;-78
2021/09/09 08:32:40;;;;;;;16.42;13.40;;;20.60;71.30;;;;;;5078149;28;20451;-73
2021/09/09 08:35:07;;;;;;;17.00;13.27;;;20.60;71.50;;;;;;5096505;28;20079;-71
2021/09/09 08:37:32;;;;;;;19.77;12.52;;;20.70;71.50;;;;;;5078779;28;20055;-72
2021/09/09 08:39:58;;;;;;;23.35;14.57;;;20.70;71.50;;;;;;5096736;28;20057;-74
2021/09/09 08:42:25;;;;;;;19.02;12.68;;;20.80;71.90;;;;;;5078268;28;20044;-73
2021/09/09 08:44:51;;;;;;;16.85;11.93;;;20.80;71.90;;;;;;5095861;28;20117;-73
2021/09/09 08:47:17;;;;;;;16.45;12.10;;;20.80;72.00;;;;;;5096583;28;20060;-73
2021/09/09 08:49:43;;;;;;;17.83;10.63;;;20.80;72.00;;;;;;5096906;28;20040;-71
2021/09/09 08:52:11;;;;;;;16.50;10.85;;;20.90;71.90;;;;;;5078571;28;20073;-72
2021/09/09 08:54:37;;;;;;;14.07;9.45;;;20.90;71.90;;;;;;5096241;28;20047;-71
2021/09/09 08:57:03;;;;;;;11.40;9.13;;;20.90;72.00;;;;;;5095697;28;20123;-71
2021/09/09 08:59:29;;;;;;;14.63;9.52;;;20.90;71.90;;;;;;5095944;28;20047;-72
2021/09/09 09:01:59;;;;;;;18.08;10.77;;;20.90;71.90;;;;;;5078849;28;20056;-72
2021/09/09 09:04:25;;;;;;;12.15;8.77;;;21.00;71.90;;;;;;5095956;28;20051;-72
2021/09/09 09:06:51;;;;;;;14.98;8.93;;;21.00;72.00;;;;;;5095748;28;20066;-71
2021/09/09 09:09:20;;;;;;;11.50;8.82;;;21.00;72.00;;;;;;5095569;28;20036;-71
2021/09/09 09:11:49;;;;;;;13.07;8.43;;;21.00;72.00;;;;;;5096433;28;20044;-72
2021/09/09 09:14:18;;;;;;;10.13;8.00;;;21.10;72.00;;;;;;5095330;28;20059;-71
2021/09/09 09:16:49;;;;;;;13.60;8.80;;;21.10;72.00;;;;;;5095713;28;20142;-72
2021/09/09 09:19:19;;;;;;;12.15;8.88;;;21.10;71.90;;;;;;5095731;28;20097;-71
2021/09/09 09:21:50;;;;;;;14.82;8.90;;;21.10;72.00;;;;;;5077503;28;20427;-74
2021/09/09 09:24:19;;;;;;;12.35;8.15;;;21.10;72.00;;;;;;5095845;28;20043;-72
2021/09/09 09:27:09;;;;;;;17.77;9.10;;;21.20;72.00;;;;;;5095337;28;20470;-71
2021/09/09 09:29:35;;;;;;;11.45;8.05;;;21.10;71.90;;;;;;5095512;28;20203;-72
2021/09/09 09:32:18;;;;;;;14.95;8.35;;;21.10;72.00;;;;;;5095546;28;20036;-71
2021/09/09 09:34:45;;;;;;;12.30;7.50;;;21.20;71.90;;;;;;5095723;28;20127;-71
2021/09/09 09:37:21;;;;;;;15.57;7.72;;;21.20;71.90;;;;;;5077767;28;20274;-72
2021/09/09 09:39:48;;;;;;;21.70;7.72;;;21.20;72.00;;;;;;5095340;28;20094;-71
2021/09/09 09:42:14;;;;;;;12.88;8.05;;;21.20;72.00;;;;;;5095622;28;20117;-72
2021/09/09 09:44:47;;;;;;;12.77;8.50;;;21.20;72.00;;;;;;5095463;28;20099;-72
2021/09/09 09:47:20;;;;;;;12.07;8.20;;;21.20;72.00;;;;;;5095022;28;20040;-71
2021/09/09 09:49:48;;;;;;;13.77;8.73;;;21.30;72.10;;;;;;5077046;28;20051;-72
2021/09/09 09:52:26;;;;;;;14.50;8.23;;;21.30;72.20;;;;;;5095201;28;20047;-70
2021/09/09 09:54:57;;;;;;;11.75;7.32;;;21.30;72.10;;;;;;5095113;28;20063;-71
2021/09/09 09:57:24;;;;;;;13.30;8.07;;;21.30;72.10;;;;;;5095124;28;20043;-70
2021/09/09 09:59:50;;;;;;;13.60;8.25;;;21.30;72.10;;;;;;5094411;28;20043;-71
2021/09/09 10:02:17;;;;;;;14.45;7.68;;;21.40;72.00;;;;;;5095138;28;20044;-71
2021/09/09 10:04:44;;;;;;;17.58;9.15;;;21.40;72.10;;;;;;5095065;28;20048;-71
2021/09/09 10:07:11;;;;;;;15.38;7.88;;;21.40;72.10;;;;;;5095292;28;20130;-70
2021/09/09 10:09:38;;;;;;;10.40;7.30;;;21.40;72.00;;;;;;5077026;28;20052;-71
2021/09/09 10:12:06;;;;;;;15.05;7.25;;;21.40;72.00;;;;;;5094982;28;20040;-70
2021/09/09 10:14:32;;;;;;;13.85;7.90;;;21.40;72.10;;;;;;5094394;28;20054;-80
2021/09/09 10:17:00;;;;;;;13.00;8.38;;;21.40;72.20;;;;;;5077343;28;20056;-78
2021/09/09 10:19:31;;;;;;;15.20;8.20;;;21.40;71.90;;;;;;5094654;28;20080;-73
2021/09/09 10:22:06;;;;;;;12.85;7.78;;;21.40;71.90;;;;;;5094672;28;20055;-70
2021/09/09 10:24:34;;;;;;;10.82;7.82;;;21.50;72.10;;;;;;5094680;28;20044;-70
2021/09/09 10:27:21;;;;;;;11.82;7.63;;;21.50;72.10;;;;;;5094621;28;20048;-70
2021/09/09 10:30:00;;;;;;;9.40;7.40;;;21.50;71.90;;;;;;5094728;28;20056;-70
2021/09/09 10:32:31;;;;;;;10.93;8.52;;;21.50;71.80;;;;;;5077686;28;20401;-71
2021/09/09 10:35:18;;;;;;;12.63;7.63;;;21.50;72.00;;;;;;5094548;28;20044;-71
2021/09/09 10:37:52;;;;;;;12.88;8.10;;;21.50;71.90;;;;;;5094650;28;20062;-70
2021/09/09 10:40:39;;;;;;;12.75;6.90;;;21.50;71.90;;;;;;5094793;28;20048;-70
2021/09/09 10:43:26;;;;;;;12.95;8.02;;;21.50;71.80;;;;;;5094663;28;20059;-71
2021/09/09 10:46:03;;;;;;;19.30;8.30;;;21.50;72.00;;;;;;5092652;28;20083;-72
2021/09/09 10:48:30;;;;;;;10.52;7.75;;;21.50;71.90;;;;;;5094534;28;20418;-70
2021/09/09 10:51:00;;;;;;;12.70;7.47;;;21.50;71.90;;;;;;5094523;28;20040;-70
2021/09/09 10:53:33;;;;;;;17.55;7.38;;;21.60;71.90;;;;;;5094581;28;20044;-70
2021/09/09 10:56:08;;;;;;;14.63;8.63;;;21.60;71.90;;;;;;5094361;28;20051;-70
2021/09/09 10:58:34;;;;;;;18.58;8.52;;;21.60;71.90;;;;;;5094091;28;20371;-70
2021/09/09 11:01:03;;;;;;;15.48;8.68;;;21.60;72.00;;;;;;5094796;28;20043;-70
2021/09/09 11:03:48;;;;;;;15.43;7.68;;;21.60;72.20;;;;;;5094480;28;20040;-69
2021/09/09 11:06:15;;;;;;;17.88;8.43;;;21.60;72.00;;;;;;5094530;28;20093;-69
2021/09/09 11:08:44;;;;;;;14.48;7.38;;;21.60;72.20;;;;;;5076514;28;20461;-69
2021/09/09 11:11:24;;;;;;;17.10;8.30;;;21.60;72.20;;;;;;5096173;28;20036;-69
2021/09/09 11:14:04;;;;;;;14.23;8.25;;;21.60;72.30;;;;;;5098018;28;20036;-69
2021/09/09 11:16:37;;;;;;;22.77;7.53;;;21.70;72.20;;;;;;5097928;28;20047;-69
2021/09/09 11:19:04;;;;;;;;;;;21.60;72.20;;;;;;5098099;28;20083;-70
2021/09/09 11:21:36;;;;;;;16.60;7.82;;;21.70;72.00;;;;;;5080096;28;19927;-69
2021/09/09 11:24:04;;;;;;;18.58;8.95;;;21.70;73.60;;;;;;5098122;28;20048;-73
2021/09/09 11:26:29;;;;;;;21.75;8.65;;;21.70;73.00;;;;;;5097440;28;20532;-72
2021/09/09 11:28:57;;;;;;;17.95;7.93;;;21.70;72.90;;;;;;5080107;28;20048;-72
2021/09/09 11:31:25;;;;;;;17.92;8.07;;;21.70;72.80;;;;;;5098292;28;20044;-72
2021/09/09 11:33:55;;;;;;;15.32;7.93;;;21.70;72.70;;;;;;5097186;28;20443;-73
2021/09/09 11:36:26;;;;;;;13.63;7.85;;;21.70;72.60;;;;;;5097719;28;20051;-71
2021/09/09 11:38:54;;;;;;;21.10;8.02;;;21.70;72.60;;;;;;5097410;28;20050;-71
2021/09/09 11:41:23;;;;;;;18.35;8.27;;;21.70;72.70;;;;;;5096094;28;20054;-72
2021/09/09 11:43:54;;;;;;;17.33;8.38;;;21.70;72.60;;;;;;5096898;28;20058;-72
2021/09/09 11:46:29;;;;;;;19.70;8.57;;;21.70;72.60;;;;;;5097522;28;20340;-71
2021/09/09 11:48:59;;;;;;;13.93;8.45;;;21.70;72.60;;;;;;5097315;28;20040;-72
2021/09/09 11:51:47;;;;;;;10.50;7.35;;;21.70;72.60;;;;;;5097091;28;20048;-72
2021/09/09 11:54:19;;;;;;;12.57;7.93;;;21.70;72.50;;;;;;5097634;28;20355;-71
2021/09/09 11:56:47;;;;;;;11.57;7.90;;;21.70;72.60;;;;;;5097210;28;20044;-72
2021/09/09 11:59:20;;;;;;;14.70;8.43;;;21.70;72.60;;;;;;5086787;28;20497;-72
2021/09/09 12:01:56;;;;;;;12.65;8.60;;;21.70;72.50;;;;;;5077376;28;20120;-72
2021/09/09 12:04:23;;;;;;;15.85;8.40;;;21.70;72.50;;;;;;5076937;28;20040;-71
2021/09/09 12:06:49;;;;;;;10.75;7.55;;;21.70;72.60;;;;;;5076622;28;20036;-71
2021/09/09 12:09:26;;;;;;;12.63;7.50;;;21.70;72.50;;;;;;5076696;28;20135;-72
2021/09/09 12:12:07;;;;;;;11.48;7.55;;;21.70;72.60;;;;;;5059247;28;20049;-72
2021/09/09 12:14:34;;;;;;;12.65;8.40;;;21.70;72.50;;;;;;5076915;28;20076;-72
2021/09/09 12:17:15;;;;;;;11.48;8.10;;;21.70;72.50;;;;;;5076950;28;20055;-72
2021/09/09 12:20:02;;;;;;;14.18;8.55;;;21.70;72.50;;;;;;5042802;28;20056;-72
2021/09/09 12:22:48;;;;;;;15.00;8.85;;;21.70;72.50;;;;;;5075613;28;20047;-71
2021/09/09 12:25:21;;;;;;;12.77;8.60;;;21.70;72.50;;;;;;5076676;28;20105;-72
2021/09/09 12:28:28;;;;;;;9.98;7.55;;;21.70;72.50;;;;;;5076526;28;20043;-72
2021/09/09 12:30:56;;;;;;;12.40;8.35;;;21.70;72.50;;;;;;4975496;28;20097;-72
2021/09/09 12:33:27;;;;;;;10.32;8.02;;;21.70;72.50;;;;;;4975981;28;20043;-72
2021/09/09 12:36:13;;;;;;;11.35;7.68;;;21.70;72.50;;;;;;5030143;28;20052;-72
2021/09/09 12:38:55;;;;;;;12.43;7.85;;;21.80;72.50;;;;;;5076318;28;20181;-73
2021/09/09 12:41:21;;;;;;;11.45;8.43;;;21.80;72.50;;;;;;5091652;28;20123;-71